Terminal Aerodrome Forecast
Issued by NWS

Home | Current Version | Previous Version | Text Only | Print | Product List | Glossary Off
Versions: 1 2 3 4 5 6 7 8 9 10 11 12 13 14 15 16 17 18 19 20 21 22 23 24 25 26 27 28 29 30 31 32 33 34

000
FTUS43 KLOT 231900 AAA
TAFMDW
TAF AMD
KMDW 231947Z 2320/2418 22012G19KT P6SM BKN200
     FM240000 20008KT P6SM VCSH SCT035 OVC060
     FM240200 24005KT P6SM BKN025 OVC040
     FM240300 21006KT P6SM SCT010 BKN015
     FM241400 23005KT P6SM SCT010 BKN020=

USA.gov is the U.S. government's official web portal to all federal, state and local government web resources and services.